Canadian Empress — VX6095 — position and weather

sailwx.info

Track history (hours):
 
Tides and Currents Weather Stations Pressure Air Temp Water Temp Dewpoint Dewpoint Depression Visibility Wind Speed Wind Dir Waves Ship Positions

Canadian Empress

Last reported at 2014-Jul-28 16:33 UTC. Time now 2014-Jul-30 23:23 UTC.
Position N 45°14' W 074°11'.

Length 30 m.

Type: Passenger vessel. MMSI: 314954012.

Date/timePositionNaut miles runAvg speedWind from/ knotsBaromVisibWave heightAir tempDewpointWater temp
2014-Jul-28 16:33N 45°14' W 074°11'8 8.0
2014-Jul-28 15:33N 45°14' W 073°59'5 4.6
2014-Jul-28 14:31N 45°18' W 073°56'2 2.4
2014-Jul-28 13:33N 45°20' W 073°54'4 4.0
2014-Jul-28 12:33N 45°23' W 073°49'6 6.1
2014-Jul-28 11:33N 45°26' W 073°42'0 0.0
2014-Jul-28 03:33N 45°26' W 073°42'2 1.9
2014-Jul-28 02:34N 45°24' W 073°43'6 6.4
2014-Jul-28 01:34N 45°24' W 073°34'4 3.5
2014-Jul-28 00:34N 45°27' W 073°30'4 3.8
2014-Jul-27 23:34N 45°30' W 073°31'1 1.3
2014-Jul-27 22:33N 45°30' W 073°33'0 0.0
2014-Jul-27 21:33N 45°30' W 073°33'0 0.0
2014-Jul-27 20:33N 45°30' W 073°33'0 0.0
2014-Jul-27 19:33N 45°30' W 073°33'3 3.4
2014-Jul-27 18:34N 45°33' W 073°31'7 7.3
2014-Jul-27 17:34N 45°40' W 073°28'7 7.5
2014-Jul-27 16:33N 45°46' W 073°22'8 7.8
2014-Jul-27 15:33N 45°53' W 073°15'8 7.5
2014-Jul-27 14:31N 45°60' W 073°11'23 7.9
2014-Jul-27 11:33N 46°15' W 072°45'8 8.3
2014-Jul-27 10:33N 46°18' W 072°34'3 0.2
2014-Jul-26 19:33N 46°20' W 072°32'6 5.5
2014-Jul-26 18:33N 46°23' W 072°25'7 7.1
2014-Jul-26 17:33N 46°27' W 072°16'6 6.5
2014-Jul-26 16:33N 46°32' W 072°11'3 0.1
2014-Jul-25 11:33N 46°30' W 072°14'1010.5
2014-Jul-25 10:33N 46°23' W 072°26'5 5.2
2014-Jul-25 09:33N 46°20' W 072°32'0 0.0
2014-Jul-25 01:09N 46°20' W 072°32'0 0.0
2014-Jul-25 00:33N 46°20' W 072°32'0 0.0
2014-Jul-24 18:33N 46°20' W 072°32'8 7.7
2014-Jul-24 17:34N 46°16' W 072°41'6 6.1
2014-Jul-24 16:31N 46°13' W 072°49'22 9.8
2014-Jul-24 14:15N 45°57' W 073°12'811.0
2014-Jul-24 13:33N 45°50' W 073°17'1010.4
2014-Jul-24 12:33N 45°42' W 073°26'1010.2
2014-Jul-24 11:34N 45°33' W 073°31'3 3.1
2014-Jul-24 10:33N 45°30' W 073°33'0 0.0
2014-Jul-23 22:34N 45°30' W 073°33'0 0.0
2014-Jul-23 21:33N 45°30' W 073°33'0 0.0
2014-Jul-23 20:34N 45°30' W 073°33'0 0.0
2014-Jul-23 19:34N 45°30' W 073°33'2 2.3
2014-Jul-23 18:34N 45°32' W 073°32'3 2.9
2014-Jul-23 17:34N 45°29' W 073°31'2 2.3
2014-Jul-23 16:33N 45°27' W 073°30'4 3.7
2014-Jul-23 15:33N 45°24' W 073°34'3 2.9
2014-Jul-23 14:34N 45°24' W 073°38'9 8.8
2014-Jul-23 13:33N 45°22' W 073°50'5 4.9
2014-Jul-23 12:34N 45°19' W 073°55'4 4.3
2014-Jul-23 11:33N 45°15' W 073°58'13 1.0
2014-Jul-22 21:33N 45°13' W 074°17'  
2014-Jul-20 00:22N 44°15' W 076°24'4 5.3
2014-Jul-19 23:33N 44°13' W 076°29'1 0.7
2014-Jul-19 22:33N 44°14' W 076°29'0 0.0
2014-Jul-19 21:33N 44°14' W 076°29'0 0.0
2014-Jul-19 20:33N 44°14' W 076°29'0 0.0
2014-Jul-19 19:33N 44°14' W 076°29'0 0.0
2014-Jul-19 18:33N 44°14' W 076°29'1 0.6
2014-Jul-19 17:33N 44°13' W 076°29'  
Track history (hours):
 
Tides and Currents Weather Stations Pressure Air Temp Water Temp Dewpoint Dewpoint Depression Visibility Wind Speed Wind Dir Waves Ship Positions

Canadian Empress

Last reported at 2014-Jul-28 16:33 UTC. Time now 2014-Jul-30 23:23 UTC.
Position N 45°14' W 074°11'.

Length 30 m.

Type: Passenger vessel. MMSI: 314954012.

Date/timePositionNaut miles runAvg speedWind from/ knotsBaromVisibWave heightAir tempDewpointWater temp
2014-Jul-28 16:33N 45°14' W 074°11'8 8.0
2014-Jul-28 15:33N 45°14' W 073°59'5 4.6
2014-Jul-28 14:31N 45°18' W 073°56'2 2.4
2014-Jul-28 13:33N 45°20' W 073°54'4 4.0
2014-Jul-28 12:33N 45°23' W 073°49'6 6.1
2014-Jul-28 11:33N 45°26' W 073°42'0 0.0
2014-Jul-28 03:33N 45°26' W 073°42'2 1.9
2014-Jul-28 02:34N 45°24' W 073°43'6 6.4
2014-Jul-28 01:34N 45°24' W 073°34'4 3.5
2014-Jul-28 00:34N 45°27' W 073°30'4 3.8
2014-Jul-27 23:34N 45°30' W 073°31'1 1.3
2014-Jul-27 22:33N 45°30' W 073°33'0 0.0
2014-Jul-27 21:33N 45°30' W 073°33'0 0.0
2014-Jul-27 20:33N 45°30' W 073°33'0 0.0
2014-Jul-27 19:33N 45°30' W 073°33'3 3.4
2014-Jul-27 18:34N 45°33' W 073°31'7 7.3
2014-Jul-27 17:34N 45°40' W 073°28'7 7.5
2014-Jul-27 16:33N 45°46' W 073°22'8 7.8
2014-Jul-27 15:33N 45°53' W 073°15'8 7.5
2014-Jul-27 14:31N 45°60' W 073°11'23 7.9
2014-Jul-27 11:33N 46°15' W 072°45'8 8.3
2014-Jul-27 10:33N 46°18' W 072°34'3 0.2
2014-Jul-26 19:33N 46°20' W 072°32'6 5.5
2014-Jul-26 18:33N 46°23' W 072°25'7 7.1
2014-Jul-26 17:33N 46°27' W 072°16'6 6.5
2014-Jul-26 16:33N 46°32' W 072°11'3 0.1
2014-Jul-25 11:33N 46°30' W 072°14'1010.5
2014-Jul-25 10:33N 46°23' W 072°26'5 5.2
2014-Jul-25 09:33N 46°20' W 072°32'0 0.0
2014-Jul-25 01:09N 46°20' W 072°32'0 0.0
2014-Jul-25 00:33N 46°20' W 072°32'0 0.0
2014-Jul-24 18:33N 46°20' W 072°32'8 7.7
2014-Jul-24 17:34N 46°16' W 072°41'6 6.1
2014-Jul-24 16:31N 46°13' W 072°49'22 9.8
2014-Jul-24 14:15N 45°57' W 073°12'811.0
2014-Jul-24 13:33N 45°50' W 073°17'1010.4
2014-Jul-24 12:33N 45°42' W 073°26'1010.2
2014-Jul-24 11:34N 45°33' W 073°31'3 3.1
2014-Jul-24 10:33N 45°30' W 073°33'0 0.0
2014-Jul-23 22:34N 45°30' W 073°33'0 0.0
2014-Jul-23 21:33N 45°30' W 073°33'0 0.0
2014-Jul-23 20:34N 45°30' W 073°33'0 0.0
2014-Jul-23 19:34N 45°30' W 073°33'2 2.3
2014-Jul-23 18:34N 45°32' W 073°32'3 2.9
2014-Jul-23 17:34N 45°29' W 073°31'2 2.3
2014-Jul-23 16:33N 45°27' W 073°30'4 3.7
2014-Jul-23 15:33N 45°24' W 073°34'3 2.9
2014-Jul-23 14:34N 45°24' W 073°38'9 8.8
2014-Jul-23 13:33N 45°22' W 073°50'5 4.9
2014-Jul-23 12:34N 45°19' W 073°55'4 4.3
2014-Jul-23 11:33N 45°15' W 073°58'13 1.0
2014-Jul-22 21:33N 45°13' W 074°17'  
2014-Jul-20 00:22N 44°15' W 076°24'4 5.3
2014-Jul-19 23:33N 44°13' W 076°29'1 0.7
2014-Jul-19 22:33N 44°14' W 076°29'0 0.0
2014-Jul-19 21:33N 44°14' W 076°29'0 0.0
2014-Jul-19 20:33N 44°14' W 076°29'0 0.0
2014-Jul-19 19:33N 44°14' W 076°29'0 0.0
2014-Jul-19 18:33N 44°14' W 076°29'1 0.6
2014-Jul-19 17:33N 44°13' W 076°29'  

Dump ship's entire track history